createdAt,value
2017-10-24T00:00:20.885Z,17.20
2017-10-24T00:02:49.089Z,16.00
2017-10-24T00:05:16.523Z,17.10
2017-10-24T00:07:44.749Z,16.20
2017-10-24T00:10:12.233Z,17.90
2017-10-24T00:12:39.677Z,14.70
2017-10-24T00:15:07.130Z,18.17
2017-10-24T00:17:34.589Z,17.33
2017-10-24T00:20:02.059Z,17.10
2017-10-24T00:22:29.501Z,15.77
2017-10-24T00:24:56.974Z,17.77
2017-10-24T00:27:24.421Z,18.00
2017-10-24T00:32:42.809Z,16.83
2017-10-24T00:35:10.258Z,17.43
2017-10-24T00:37:37.741Z,15.43
2017-10-24T00:40:05.949Z,14.20
2017-10-24T00:42:33.386Z,17.10
2017-10-24T00:45:00.858Z,15.17
2017-10-24T00:47:28.323Z,16.43
2017-10-24T00:49:55.771Z,15.97
2017-10-24T00:52:23.230Z,16.17
2017-10-24T00:54:50.678Z,15.07
2017-10-24T00:57:18.142Z,16.10
2017-10-24T00:59:45.591Z,15.43
2017-10-24T01:02:13.045Z,16.00
2017-10-24T01:04:40.500Z,15.80
2017-10-24T01:07:08.738Z,15.73
2017-10-24T01:09:36.186Z,18.33
2017-10-24T01:12:03.638Z,15.30
2017-10-24T01:14:31.103Z,16.00
2017-10-24T01:16:58.549Z,13.87
2017-10-24T01:19:26.034Z,16.80
2017-10-24T01:21:53.485Z,15.93
2017-10-24T01:24:20.948Z,15.90
2017-10-24T01:26:48.401Z,15.73
2017-10-24T01:29:15.869Z,15.63
2017-10-24T01:31:43.322Z,17.33
2017-10-24T01:34:11.039Z,16.90
2017-10-24T01:36:38.488Z,16.10
2017-10-24T01:39:05.950Z,14.77
2017-10-24T01:41:33.440Z,15.80
2017-10-24T01:44:00.891Z,15.93
2017-10-24T01:46:28.334Z,14.10
2017-10-24T01:48:55.797Z,14.90
2017-10-24T01:51:23.244Z,16.57
2017-10-24T01:53:50.712Z,18.17
2017-10-24T01:56:18.156Z,15.80
2017-10-24T01:58:45.600Z,14.13
2017-10-24T02:01:13.070Z,14.13
2017-10-24T02:03:40.514Z,15.27
2017-10-24T02:06:07.985Z,14.90
2017-10-24T02:08:35.453Z,14.70
2017-10-24T02:11:02.900Z,15.63
2017-10-24T02:13:30.365Z,15.73
2017-10-24T02:15:57.831Z,14.93
2017-10-24T02:18:25.265Z,15.70
2017-10-24T02:20:52.732Z,15.57
2017-10-24T02:23:20.180Z,15.60
2017-10-24T02:25:47.650Z,14.33
2017-10-24T02:28:15.124Z,16.50
2017-10-24T02:30:42.556Z,13.70
2017-10-24T02:33:10.036Z,14.97
2017-10-24T02:35:37.488Z,16.47
2017-10-24T02:38:04.928Z,16.60
2017-10-24T02:40:32.403Z,14.93
2017-10-24T02:42:59.880Z,17.47
2017-10-24T02:45:27.609Z,17.70
2017-10-24T02:47:55.077Z,15.87
2017-10-24T02:50:22.559Z,17.40
2017-10-24T02:52:50.006Z,16.63
2017-10-24T02:55:17.449Z,18.00
2017-10-24T02:57:44.918Z,14.50
2017-10-24T03:00:12.361Z,18.97
2017-10-24T03:02:39.819Z,15.80
2017-10-24T03:05:07.290Z,15.60
2017-10-24T03:07:34.748Z,14.87
2017-10-24T03:10:02.188Z,14.43
2017-10-24T03:12:29.664Z,14.87
2017-10-24T03:14:57.117Z,12.80
2017-10-24T03:17:24.557Z,15.57
2017-10-24T03:19:52.032Z,15.30
2017-10-24T03:22:19.487Z,13.60
2017-10-24T03:24:46.930Z,15.50
2017-10-24T03:27:14.389Z,18.80
2017-10-24T03:29:41.866Z,15.20
2017-10-24T03:32:10.077Z,16.27
2017-10-24T03:34:37.577Z,13.00
2017-10-24T03:37:05.141Z,14.33
2017-10-24T03:39:32.587Z,13.77
2017-10-24T03:42:00.047Z,15.90
2017-10-24T03:44:27.783Z,15.00
2017-10-24T03:46:55.233Z,12.90
2017-10-24T03:49:22.713Z,14.10
2017-10-24T03:51:50.166Z,13.77
2017-10-24T03:54:18.377Z,16.13
2017-10-24T03:56:45.850Z,12.87
2017-10-24T03:59:13.303Z,14.77
2017-10-24T04:01:40.739Z,14.60
2017-10-24T04:04:08.210Z,13.53
2017-10-24T04:06:35.648Z,13.37
2017-10-24T04:09:03.113Z,12.90
2017-10-24T04:11:30.558Z,13.17
2017-10-24T04:13:58.027Z,13.17
2017-10-24T04:16:25.464Z,12.90
2017-10-24T04:18:53.063Z,13.10
2017-10-24T04:21:20.489Z,12.10
2017-10-24T04:23:48.336Z,13.47
2017-10-24T04:26:16.567Z,13.30
2017-10-24T04:28:44.917Z,13.03
2017-10-24T04:31:12.366Z,13.87
2017-10-24T04:33:39.824Z,14.60
2017-10-24T04:36:07.286Z,13.90
2017-10-24T04:38:34.720Z,14.00
2017-10-24T04:41:03.032Z,13.00
2017-10-24T04:43:30.468Z,15.20
2017-10-24T04:45:57.937Z,13.10
2017-10-24T04:48:25.385Z,12.23
2017-10-24T04:50:52.827Z,13.40
2017-10-24T04:53:21.074Z,15.90
2017-10-24T04:55:48.517Z,15.60
2017-10-24T04:58:15.973Z,15.93
2017-10-24T05:00:43.447Z,16.17
2017-10-24T05:03:10.889Z,13.77
2017-10-24T05:05:38.361Z,15.57
2017-10-24T05:08:05.800Z,16.60
2017-10-24T05:10:33.269Z,17.87
2017-10-24T05:13:00.738Z,17.83
2017-10-24T05:15:28.199Z,16.73
2017-10-24T05:17:55.665Z,17.90
2017-10-24T05:20:23.378Z,16.03
2017-10-24T05:22:50.811Z,19.70
2017-10-24T05:25:18.273Z,17.60
2017-10-24T05:27:45.725Z,17.27
2017-10-24T05:30:13.929Z,18.30
2017-10-24T05:32:41.391Z,17.47
2017-10-24T05:35:08.832Z,19.97
2017-10-24T05:37:36.305Z,17.67
2017-10-24T05:40:03.777Z,17.10
2017-10-24T05:42:31.244Z,18.70
2017-10-24T05:44:58.712Z,25.70
2017-10-24T05:47:26.436Z,17.13
2017-10-24T05:49:53.889Z,14.60
2017-10-24T05:52:21.321Z,17.37
2017-10-24T05:54:49.836Z,15.90
2017-10-24T05:57:17.392Z,18.43
2017-10-24T05:59:44.849Z,17.33
2017-10-24T06:02:12.305Z,15.10
2017-10-24T06:04:39.761Z,16.03
2017-10-24T06:07:07.217Z,15.50
2017-10-24T06:09:34.685Z,14.67
2017-10-24T06:12:02.158Z,18.07
2017-10-24T06:14:29.605Z,16.03
2017-10-24T06:16:57.092Z,17.43
2017-10-24T06:19:24.644Z,16.57
2017-10-24T06:21:52.097Z,18.40
2017-10-24T06:24:19.567Z,16.50
2017-10-24T06:26:47.009Z,19.50
2017-10-24T06:29:14.491Z,17.97
2017-10-24T06:31:41.948Z,20.43
2017-10-24T06:34:09.395Z,17.87
2017-10-24T06:36:36.862Z,19.20
2017-10-24T06:39:04.321Z,17.43
2017-10-24T06:41:31.831Z,17.63
2017-10-24T06:43:59.286Z,18.17
2017-10-24T06:46:27.587Z,15.93
2017-10-24T06:48:55.058Z,17.23
2017-10-24T06:51:22.501Z,18.80
2017-10-24T06:53:49.940Z,18.90
2017-10-24T06:56:17.498Z,18.50
2017-10-24T06:58:44.933Z,17.47
2017-10-24T07:01:13.150Z,14.50
2017-10-24T07:03:40.621Z,15.80
2017-10-24T07:06:08.070Z,17.50
2017-10-24T07:08:35.532Z,14.33
2017-10-24T07:11:02.975Z,16.20
2017-10-24T07:13:30.416Z,15.40
2017-10-24T07:15:57.884Z,13.60
2017-10-24T07:18:25.342Z,12.63
2017-10-24T07:20:52.797Z,15.57
2017-10-24T07:23:20.277Z,12.90
2017-10-24T07:25:47.721Z,11.73
2017-10-24T07:28:15.166Z,13.97
2017-10-24T07:30:42.645Z,14.10
2017-10-24T07:33:10.088Z,13.60
2017-10-24T07:35:37.538Z,11.50
2017-10-24T07:38:05.834Z,12.80
2017-10-24T07:40:33.274Z,12.30
2017-10-24T07:43:00.731Z,12.40
2017-10-24T07:45:28.209Z,12.67
2017-10-24T07:47:55.654Z,14.50
2017-10-24T07:50:23.139Z,14.10
2017-10-24T07:52:50.585Z,14.70
2017-10-24T07:55:18.052Z,11.93
2017-10-24T07:57:45.577Z,14.17
2017-10-24T08:00:13.030Z,14.10
2017-10-24T08:02:40.595Z,15.87
2017-10-24T08:05:08.067Z,16.10
2017-10-24T08:07:35.853Z,13.07
2017-10-24T08:10:03.292Z,25.47
2017-10-24T08:12:30.782Z,17.63
2017-10-24T08:14:58.224Z,15.30
2017-10-24T08:17:25.665Z,15.83
2017-10-24T08:19:53.217Z,16.40
2017-10-24T08:22:20.658Z,18.53
2017-10-24T08:24:48.101Z,18.87
2017-10-24T08:27:15.581Z,17.00
2017-10-24T08:29:43.041Z,16.50
2017-10-24T08:32:10.491Z,18.63
2017-10-24T08:34:37.970Z,16.33
2017-10-24T08:37:05.413Z,17.03
2017-10-24T08:39:33.173Z,18.67
2017-10-24T08:42:00.667Z,18.37
2017-10-24T08:44:28.893Z,18.53
2017-10-24T08:46:56.377Z,15.30
2017-10-24T08:49:23.884Z,16.80
2017-10-24T08:51:52.142Z,14.37
2017-10-24T08:54:19.617Z,14.70
2017-10-24T08:56:47.110Z,15.40
2017-10-24T08:59:14.592Z,15.97
2017-10-24T09:01:42.022Z,17.50
2017-10-24T09:04:09.470Z,17.00
2017-10-24T09:06:37.708Z,18.10
2017-10-24T09:22:24.711Z,21.83
2017-10-24T09:24:52.149Z,17.93
2017-10-24T09:27:19.607Z,17.30
2017-10-24T09:29:47.090Z,14.90
2017-10-24T09:32:14.576Z,16.60
2017-10-24T09:34:42.780Z,15.47
2017-10-24T09:37:10.258Z,22.13
2017-10-24T09:39:39.284Z,14.97
2017-10-24T09:42:07.533Z,16.47
2017-10-24T09:44:34.989Z,14.63
2017-10-24T09:47:02.437Z,15.27
2017-10-24T09:49:31.217Z,14.90
2017-10-24T09:51:58.648Z,14.93
2017-10-24T09:54:26.099Z,14.80
2017-10-24T09:56:53.576Z,15.40
2017-10-24T09:59:39.858Z,12.70
2017-10-24T10:02:07.345Z,13.20
2017-10-24T10:04:34.806Z,14.00
2017-10-24T10:07:02.641Z,14.27
2017-10-24T10:09:31.138Z,13.60
2017-10-24T10:11:58.592Z,14.60
2017-10-24T10:14:26.024Z,12.13
2017-10-24T10:16:53.520Z,13.40
2017-10-24T10:19:20.977Z,12.00
2017-10-24T10:21:49.385Z,13.90
2017-10-24T10:24:22.174Z,13.70
2017-10-24T10:26:49.640Z,15.00
2017-10-24T10:29:17.263Z,15.87
2017-10-24T10:31:44.775Z,13.10
2017-10-24T10:34:12.997Z,11.67
2017-10-24T10:36:40.445Z,13.30
2017-10-24T10:39:08.681Z,13.97
2017-10-24T10:41:37.032Z,13.07
2017-10-24T10:44:04.521Z,12.07
2017-10-24T10:46:32.829Z,14.83
2017-10-24T10:49:00.272Z,14.37
2017-10-24T10:51:27.753Z,13.07
2017-10-24T10:53:55.222Z,14.57
2017-10-24T10:56:22.677Z,14.43
2017-10-24T10:58:50.148Z,13.07
2017-10-24T11:01:17.597Z,12.70
2017-10-24T11:03:45.052Z,13.63
2017-10-24T11:06:12.537Z,11.80
2017-10-24T11:08:39.992Z,11.27
2017-10-24T11:11:07.445Z,11.20
2017-10-24T11:13:34.957Z,11.37
2017-10-24T11:16:02.412Z,11.50
2017-10-24T11:18:29.881Z,16.30
2017-10-24T11:20:57.398Z,11.57
2017-10-24T11:23:25.636Z,11.57
2017-10-24T11:25:53.118Z,12.73
2017-10-24T11:28:20.562Z,10.20
2017-10-24T11:30:48.026Z,11.57
2017-10-24T11:33:15.491Z,14.10
2017-10-24T11:35:42.933Z,13.43
2017-10-24T11:38:10.401Z,13.07
2017-10-24T11:40:37.885Z,10.43
2017-10-24T11:43:06.114Z,13.47
2017-10-24T11:45:33.564Z,10.37
2017-10-24T11:48:01.050Z,10.60
2017-10-24T11:50:28.498Z,10.90
2017-10-24T11:52:55.949Z,8.80
2017-10-24T11:55:24.198Z,8.90
2017-10-24T11:57:51.752Z,9.90
2017-10-24T12:00:19.190Z,9.50
2017-10-24T12:02:46.661Z,7.37
2017-10-24T12:05:14.105Z,8.23
2017-10-24T12:07:41.558Z,8.47
2017-10-24T12:10:09.789Z,6.43
2017-10-24T12:12:37.245Z,5.97
2017-10-24T12:15:04.686Z,6.70
2017-10-24T12:17:32.160Z,7.40
2017-10-24T12:19:59.600Z,6.10
2017-10-24T12:22:27.041Z,6.80
2017-10-24T12:24:54.526Z,6.70
2017-10-24T12:27:21.964Z,5.83
2017-10-24T12:29:49.409Z,5.97
2017-10-24T12:32:16.929Z,6.47
2017-10-24T12:34:44.364Z,6.53
2017-10-24T12:37:11.894Z,7.20
2017-10-24T12:39:39.358Z,6.10
2017-10-24T12:42:09.161Z,5.00
2017-10-24T12:44:37.436Z,6.40
2017-10-24T12:47:10.565Z,6.23
2017-10-24T12:49:40.561Z,5.83
2017-10-24T12:52:08.000Z,7.60
2017-10-24T12:54:35.477Z,7.30
2017-10-24T12:57:02.927Z,6.60
2017-10-24T12:59:30.374Z,6.10
2017-10-24T13:01:57.853Z,5.10
2017-10-24T13:04:25.306Z,5.37
2017-10-24T13:06:52.754Z,6.57
2017-10-24T13:09:20.226Z,6.23
2017-10-24T13:11:47.670Z,5.93
2017-10-24T13:14:15.123Z,7.97
2017-10-24T13:16:42.600Z,6.67
2017-10-24T13:19:10.817Z,6.07
2017-10-24T13:21:39.031Z,6.87
2017-10-24T13:24:06.505Z,8.80
2017-10-24T13:26:34.838Z,7.57
2017-10-24T13:29:03.040Z,7.40
2017-10-24T13:31:30.500Z,7.60
2017-10-24T13:33:57.996Z,18.20
2017-10-24T13:36:26.206Z,10.93
2017-10-24T13:38:54.422Z,9.77
